Rio Verde de Mato Grosso, Brazil
Current Conditions -  °F | °C
As of 8:00 PM on Friday 28 Nov 2014 (Local Time) from SBCG Reporting Station
Few Clouds Few Clouds  
Wind Chill: 70°   Ceiling: Unl
Heat Index: 70°   Visibility: 6mi
Dew Point: 68°   Wind: 9mph
Humidity: 94%   Direction: 180°S
Pressure: 29.94"   Gusts: NA
Location:  18.92°S, 54.84°W
Report Text: SBCG 282300Z 18008KT 9999 FEW030 FEW040TCU 21/20 Q1014
Loading
Personal Weather Stations






























Interactive Weather Map New forecast layout! Learn more

10-Day Weather Forecast

Advertisements
Track Severe Weather on mobile